sensor_id;sensor_type;location;lat;lon;timestamp;P1;durP1;ratioP1;P2;durP2;ratioP2
2674;SDS011;1347;42.122;24.746;2023-05-10T00:01:40;11.07;;;8.80;;
2674;SDS011;1347;42.122;24.746;2023-05-10T00:04:07;11.97;;;9.00;;
2674;SDS011;1347;42.122;24.746;2023-05-10T00:06:34;9.23;;;8.03;;
2674;SDS011;1347;42.122;24.746;2023-05-10T00:09:02;9.43;;;8.43;;
2674;SDS011;1347;42.122;24.746;2023-05-10T00:11:29;11.60;;;9.57;;
2674;SDS011;1347;42.122;24.746;2023-05-10T00:13:56;10.90;;;9.80;;
2674;SDS011;1347;42.122;24.746;2023-05-10T00:16:23;10.27;;;9.10;;
2674;SDS011;1347;42.122;24.746;2023-05-10T00:18:50;11.57;;;10.37;;
2674;SDS011;1347;42.122;24.746;2023-05-10T00:21:16;9.93;;;9.03;;
2674;SDS011;1347;42.122;24.746;2023-05-10T00:23:43;12.10;;;9.40;;
2674;SDS011;1347;42.122;24.746;2023-05-10T00:26:12;10.73;;;9.73;;
2674;SDS011;1347;42.122;24.746;2023-05-10T00:28:38;15.53;;;11.87;;
2674;SDS011;1347;42.122;24.746;2023-05-10T00:31:05;10.83;;;9.73;;
2674;SDS011;1347;42.122;24.746;2023-05-10T00:33:32;10.00;;;9.00;;
2674;SDS011;1347;42.122;24.746;2023-05-10T00:35:59;10.30;;;9.30;;
2674;SDS011;1347;42.122;24.746;2023-05-10T00:38:26;15.87;;;9.17;;
2674;SDS011;1347;42.122;24.746;2023-05-10T00:40:53;12.10;;;9.03;;
2674;SDS011;1347;42.122;24.746;2023-05-10T00:43:21;13.60;;;8.90;;
2674;SDS011;1347;42.122;24.746;2023-05-10T00:45:48;10.70;;;8.50;;
2674;SDS011;1347;42.122;24.746;2023-05-10T00:48:15;9.50;;;7.77;;
2674;SDS011;1347;42.122;24.746;2023-05-10T00:50:42;8.93;;;7.90;;
2674;SDS011;1347;42.122;24.746;2023-05-10T00:53:09;12.90;;;9.10;;
2674;SDS011;1347;42.122;24.746;2023-05-10T00:55:36;14.20;;;9.43;;
2674;SDS011;1347;42.122;24.746;2023-05-10T00:58:04;13.10;;;8.60;;
2674;SDS011;1347;42.122;24.746;2023-05-10T01:00:33;11.73;;;9.47;;
2674;SDS011;1347;42.122;24.746;2023-05-10T01:03:00;10.13;;;9.00;;
2674;SDS011;1347;42.122;24.746;2023-05-10T01:05:27;12.63;;;9.10;;
2674;SDS011;1347;42.122;24.746;2023-05-10T01:07:54;12.00;;;9.37;;
2674;SDS011;1347;42.122;24.746;2023-05-10T01:10:20;10.73;;;8.10;;
2674;SDS011;1347;42.122;24.746;2023-05-10T01:12:47;12.10;;;9.83;;
2674;SDS011;1347;42.122;24.746;2023-05-10T01:15:14;14.30;;;9.77;;
2674;SDS011;1347;42.122;24.746;2023-05-10T01:17:44;10.27;;;9.27;;
2674;SDS011;1347;42.122;24.746;2023-05-10T01:20:13;15.03;;;9.50;;
2674;SDS011;1347;42.122;24.746;2023-05-10T01:22:56;9.43;;;8.53;;
2674;SDS011;1347;42.122;24.746;2023-05-10T01:28:58;14.67;;;8.70;;
2674;SDS011;1347;42.122;24.746;2023-05-10T01:32:09;10.40;;;8.70;;
2674;SDS011;1347;42.122;24.746;2023-05-10T01:34:44;8.87;;;7.97;;
2674;SDS011;1347;42.122;24.746;2023-05-10T01:37:20;14.30;;;9.90;;
2674;SDS011;1347;42.122;24.746;2023-05-10T01:39:54;14.30;;;10.23;;
2674;SDS011;1347;42.122;24.746;2023-05-10T01:42:25;12.20;;;9.57;;
2674;SDS011;1347;42.122;24.746;2023-05-10T01:44:58;10.07;;;9.07;;
2674;SDS011;1347;42.122;24.746;2023-05-10T01:47:37;12.83;;;10.57;;
2674;SDS011;1347;42.122;24.746;2023-05-10T01:50:09;12.03;;;10.73;;
2674;SDS011;1347;42.122;24.746;2023-05-10T01:52:41;11.97;;;9.93;;
2674;SDS011;1347;42.122;24.746;2023-05-10T01:55:11;11.23;;;10.23;;
2674;SDS011;1347;42.122;24.746;2023-05-10T01:57:42;14.63;;;10.87;;
2674;SDS011;1347;42.122;24.746;2023-05-10T02:00:11;12.30;;;10.80;;
2674;SDS011;1347;42.122;24.746;2023-05-10T02:02:42;12.40;;;10.87;;
2674;SDS011;1347;42.122;24.746;2023-05-10T02:05:12;15.50;;;12.10;;
2674;SDS011;1347;42.122;24.746;2023-05-10T02:07:40;14.57;;;12.47;;
2674;SDS011;1347;42.122;24.746;2023-05-10T02:10:09;12.77;;;11.43;;
2674;SDS011;1347;42.122;24.746;2023-05-10T02:12:39;16.80;;;12.27;;
2674;SDS011;1347;42.122;24.746;2023-05-10T02:15:08;12.70;;;11.40;;
2674;SDS011;1347;42.122;24.746;2023-05-10T02:17:37;17.20;;;13.50;;
2674;SDS011;1347;42.122;24.746;2023-05-10T02:20:07;16.10;;;13.00;;
2674;SDS011;1347;42.122;24.746;2023-05-10T02:22:35;13.47;;;11.90;;
2674;SDS011;1347;42.122;24.746;2023-05-10T02:25:03;12.10;;;10.90;;
2674;SDS011;1347;42.122;24.746;2023-05-10T02:27:30;16.60;;;11.57;;
2674;SDS011;1347;42.122;24.746;2023-05-10T02:29:58;19.27;;;13.53;;
2674;SDS011;1347;42.122;24.746;2023-05-10T02:32:26;25.40;;;19.93;;
2674;SDS011;1347;42.122;24.746;2023-05-10T02:34:55;24.97;;;19.67;;
2674;SDS011;1347;42.122;24.746;2023-05-10T02:37:24;30.30;;;23.23;;
2674;SDS011;1347;42.122;24.746;2023-05-10T02:39:52;27.30;;;24.40;;
2674;SDS011;1347;42.122;24.746;2023-05-10T02:42:22;31.43;;;20.47;;
2674;SDS011;1347;42.122;24.746;2023-05-10T02:44:52;19.97;;;17.63;;
2674;SDS011;1347;42.122;24.746;2023-05-10T02:47:22;21.40;;;17.83;;
2674;SDS011;1347;42.122;24.746;2023-05-10T02:49:49;20.73;;;16.10;;
2674;SDS011;1347;42.122;24.746;2023-05-10T02:52:16;16.70;;;15.00;;
2674;SDS011;1347;42.122;24.746;2023-05-10T02:54:52;16.90;;;14.43;;
2674;SDS011;1347;42.122;24.746;2023-05-10T02:57:22;19.70;;;14.73;;
2674;SDS011;1347;42.122;24.746;2023-05-10T02:59:54;17.07;;;13.17;;
2674;SDS011;1347;42.122;24.746;2023-05-10T03:02:21;21.83;;;14.47;;
2674;SDS011;1347;42.122;24.746;2023-05-10T03:04:48;16.83;;;14.10;;
2674;SDS011;1347;42.122;24.746;2023-05-10T03:07:14;20.17;;;15.20;;
2674;SDS011;1347;42.122;24.746;2023-05-10T03:09:44;19.27;;;15.13;;
2674;SDS011;1347;42.122;24.746;2023-05-10T03:12:14;18.63;;;16.63;;
2674;SDS011;1347;42.122;24.746;2023-05-10T03:14:49;26.00;;;15.97;;
2674;SDS011;1347;42.122;24.746;2023-05-10T03:17:23;19.20;;;17.23;;
2674;SDS011;1347;42.122;24.746;2023-05-10T03:19:56;25.83;;;17.63;;
2674;SDS011;1347;42.122;24.746;2023-05-10T03:22:30;21.90;;;16.20;;
2674;SDS011;1347;42.122;24.746;2023-05-10T03:24:58;26.40;;;18.97;;
2674;SDS011;1347;42.122;24.746;2023-05-10T03:27:30;19.63;;;17.50;;
2674;SDS011;1347;42.122;24.746;2023-05-10T03:29:58;19.20;;;16.67;;
2674;SDS011;1347;42.122;24.746;2023-05-10T03:32:26;26.67;;;17.83;;
2674;SDS011;1347;42.122;24.746;2023-05-10T03:34:53;24.37;;;18.07;;
2674;SDS011;1347;42.122;24.746;2023-05-10T03:37:20;20.23;;;16.90;;
2674;SDS011;1347;42.122;24.746;2023-05-10T03:39:46;19.83;;;16.30;;
2674;SDS011;1347;42.122;24.746;2023-05-10T03:42:13;22.70;;;18.30;;
2674;SDS011;1347;42.122;24.746;2023-05-10T03:44:44;20.73;;;18.30;;
2674;SDS011;1347;42.122;24.746;2023-05-10T03:47:11;23.30;;;18.27;;
2674;SDS011;1347;42.122;24.746;2023-05-10T03:49:37;22.20;;;18.30;;
2674;SDS011;1347;42.122;24.746;2023-05-10T03:52:04;22.90;;;19.10;;
2674;SDS011;1347;42.122;24.746;2023-05-10T03:54:31;22.37;;;17.63;;
2674;SDS011;1347;42.122;24.746;2023-05-10T03:56:58;23.67;;;18.00;;
2674;SDS011;1347;42.122;24.746;2023-05-10T03:59:25;25.33;;;18.87;;
2674;SDS011;1347;42.122;24.746;2023-05-10T04:01:53;22.77;;;17.37;;
2674;SDS011;1347;42.122;24.746;2023-05-10T04:04:20;20.17;;;17.40;;
2674;SDS011;1347;42.122;24.746;2023-05-10T04:06:48;19.10;;;15.80;;
2674;SDS011;1347;42.122;24.746;2023-05-10T04:09:15;23.33;;;16.70;;
2674;SDS011;1347;42.122;24.746;2023-05-10T04:11:42;24.13;;;15.83;;
2674;SDS011;1347;42.122;24.746;2023-05-10T04:14:09;17.83;;;13.10;;
2674;SDS011;1347;42.122;24.746;2023-05-10T04:16:36;17.63;;;13.70;;
2674;SDS011;1347;42.122;24.746;2023-05-10T04:19:04;22.93;;;14.57;;
2674;SDS011;1347;42.122;24.746;2023-05-10T04:21:31;17.07;;;13.50;;
2674;SDS011;1347;42.122;24.746;2023-05-10T04:23:58;18.37;;;12.33;;
2674;SDS011;1347;42.122;24.746;2023-05-10T04:26:25;17.10;;;11.87;;
2674;SDS011;1347;42.122;24.746;2023-05-10T04:28:52;19.27;;;12.60;;
2674;SDS011;1347;42.122;24.746;2023-05-10T04:31:19;13.23;;;11.90;;
2674;SDS011;1347;42.122;24.746;2023-05-10T04:33:45;15.77;;;12.50;;
2674;SDS011;1347;42.122;24.746;2023-05-10T04:36:14;18.17;;;13.70;;
2674;SDS011;1347;42.122;24.746;2023-05-10T04:38:40;20.27;;;17.73;;
2674;SDS011;1347;42.122;24.746;2023-05-10T04:41:08;19.70;;;16.10;;
2674;SDS011;1347;42.122;24.746;2023-05-10T04:43:37;14.80;;;12.00;;
2674;SDS011;1347;42.122;24.746;2023-05-10T04:46:04;17.30;;;10.00;;
2674;SDS011;1347;42.122;24.746;2023-05-10T04:48:32;19.00;;;11.50;;
2674;SDS011;1347;42.122;24.746;2023-05-10T04:50:59;12.27;;;10.57;;
2674;SDS011;1347;42.122;24.746;2023-05-10T04:53:27;15.50;;;11.60;;
2674;SDS011;1347;42.122;24.746;2023-05-10T04:55:54;13.37;;;10.37;;
2674;SDS011;1347;42.122;24.746;2023-05-10T04:58:21;10.10;;;9.13;;
2674;SDS011;1347;42.122;24.746;2023-05-10T05:00:48;13.80;;;10.90;;
2674;SDS011;1347;42.122;24.746;2023-05-10T05:03:17;17.63;;;10.70;;
2674;SDS011;1347;42.122;24.746;2023-05-10T05:05:44;12.87;;;11.07;;
2674;SDS011;1347;42.122;24.746;2023-05-10T05:08:11;13.50;;;11.03;;
2674;SDS011;1347;42.122;24.746;2023-05-10T05:10:39;17.23;;;11.60;;
2674;SDS011;1347;42.122;24.746;2023-05-10T05:13:06;20.50;;;11.23;;
2674;SDS011;1347;42.122;24.746;2023-05-10T05:15:33;13.60;;;11.23;;
2674;SDS011;1347;42.122;24.746;2023-05-10T05:18:00;14.07;;;10.87;;
2674;SDS011;1347;42.122;24.746;2023-05-10T05:20:27;13.40;;;11.60;;
2674;SDS011;1347;42.122;24.746;2023-05-10T05:22:53;18.03;;;11.20;;
2674;SDS011;1347;42.122;24.746;2023-05-10T05:25:20;16.53;;;11.10;;
2674;SDS011;1347;42.122;24.746;2023-05-10T05:27:49;13.67;;;11.77;;
2674;SDS011;1347;42.122;24.746;2023-05-10T05:30:16;18.93;;;13.47;;
2674;SDS011;1347;42.122;24.746;2023-05-10T05:32:42;13.63;;;11.23;;
2674;SDS011;1347;42.122;24.746;2023-05-10T05:35:09;19.83;;;10.33;;
2674;SDS011;1347;42.122;24.746;2023-05-10T05:37:37;13.43;;;9.50;;
2674;SDS011;1347;42.122;24.746;2023-05-10T05:40:04;15.30;;;11.57;;
2674;SDS011;1347;42.122;24.746;2023-05-10T05:42:32;10.40;;;8.67;;
2674;SDS011;1347;42.122;24.746;2023-05-10T05:45:00;12.80;;;10.60;;
2674;SDS011;1347;42.122;24.746;2023-05-10T05:47:27;15.37;;;10.93;;
2674;SDS011;1347;42.122;24.746;2023-05-10T05:49:53;12.87;;;8.50;;
2674;SDS011;1347;42.122;24.746;2023-05-10T05:52:20;15.00;;;10.90;;
2674;SDS011;1347;42.122;24.746;2023-05-10T05:54:47;11.63;;;10.43;;
2674;SDS011;1347;42.122;24.746;2023-05-10T05:57:14;14.17;;;10.93;;
2674;SDS011;1347;42.122;24.746;2023-05-10T05:59:41;14.17;;;11.27;;
2674;SDS011;1347;42.122;24.746;2023-05-10T06:02:10;11.60;;;10.27;;
2674;SDS011;1347;42.122;24.746;2023-05-10T06:04:37;16.60;;;10.47;;
2674;SDS011;1347;42.122;24.746;2023-05-10T06:07:04;11.07;;;8.20;;
2674;SDS011;1347;42.122;24.746;2023-05-10T06:09:31;13.30;;;9.10;;
2674;SDS011;1347;42.122;24.746;2023-05-10T06:11:58;12.90;;;10.10;;
2674;SDS011;1347;42.122;24.746;2023-05-10T06:14:25;21.00;;;10.37;;
2674;SDS011;1347;42.122;24.746;2023-05-10T06:16:52;21.03;;;9.90;;
2674;SDS011;1347;42.122;24.746;2023-05-10T06:19:20;10.33;;;9.23;;
2674;SDS011;1347;42.122;24.746;2023-05-10T06:21:47;12.40;;;10.17;;
2674;SDS011;1347;42.122;24.746;2023-05-10T06:24:13;13.10;;;11.27;;
2674;SDS011;1347;42.122;24.746;2023-05-10T06:26:40;11.73;;;10.63;;
2674;SDS011;1347;42.122;24.746;2023-05-10T06:29:07;15.10;;;9.83;;
2674;SDS011;1347;42.122;24.746;2023-05-10T06:31:34;14.50;;;10.97;;
2674;SDS011;1347;42.122;24.746;2023-05-10T06:34:02;15.50;;;9.73;;
2674;SDS011;1347;42.122;24.746;2023-05-10T06:36:30;11.70;;;9.97;;
2674;SDS011;1347;42.122;24.746;2023-05-10T06:38:57;18.70;;;10.30;;
2674;SDS011;1347;42.122;24.746;2023-05-10T06:41:24;12.10;;;10.90;;
2674;SDS011;1347;42.122;24.746;2023-05-10T06:43:50;12.83;;;10.37;;
2674;SDS011;1347;42.122;24.746;2023-05-10T06:46:17;13.80;;;9.60;;
2674;SDS011;1347;42.122;24.746;2023-05-10T06:48:44;15.33;;;9.10;;
2674;SDS011;1347;42.122;24.746;2023-05-10T06:51:11;8.33;;;7.47;;
2674;SDS011;1347;42.122;24.746;2023-05-10T06:53:39;10.60;;;8.97;;
2674;SDS011;1347;42.122;24.746;2023-05-10T06:56:06;10.70;;;7.40;;
2674;SDS011;1347;42.122;24.746;2023-05-10T06:58:33;8.87;;;7.90;;
2674;SDS011;1347;42.122;24.746;2023-05-10T07:01:03;9.97;;;8.57;;
2674;SDS011;1347;42.122;24.746;2023-05-10T07:03:30;11.90;;;8.03;;
2674;SDS011;1347;42.122;24.746;2023-05-10T07:06:00;8.70;;;7.67;;
2674;SDS011;1347;42.122;24.746;2023-05-10T07:08:29;9.53;;;8.40;;
2674;SDS011;1347;42.122;24.746;2023-05-10T07:11:01;9.10;;;8.20;;
2674;SDS011;1347;42.122;24.746;2023-05-10T07:13:29;8.43;;;7.50;;
2674;SDS011;1347;42.122;24.746;2023-05-10T07:15:57;10.40;;;7.80;;
2674;SDS011;1347;42.122;24.746;2023-05-10T07:18:24;13.37;;;9.10;;
2674;SDS011;1347;42.122;24.746;2023-05-10T07:20:51;9.43;;;7.90;;
2674;SDS011;1347;42.122;24.746;2023-05-10T07:23:18;9.13;;;7.87;;
2674;SDS011;1347;42.122;24.746;2023-05-10T07:25:45;10.63;;;7.40;;
2674;SDS011;1347;42.122;24.746;2023-05-10T07:28:14;14.47;;;8.90;;
2674;SDS011;1347;42.122;24.746;2023-05-10T07:30:42;8.70;;;7.80;;
2674;SDS011;1347;42.122;24.746;2023-05-10T07:33:09;12.67;;;8.77;;
2674;SDS011;1347;42.122;24.746;2023-05-10T07:35:37;15.73;;;7.13;;
2674;SDS011;1347;42.122;24.746;2023-05-10T07:38:04;11.47;;;7.87;;
2674;SDS011;1347;42.122;24.746;2023-05-10T07:40:31;7.33;;;6.50;;
2674;SDS011;1347;42.122;24.746;2023-05-10T07:42:58;10.27;;;6.67;;
2674;SDS011;1347;42.122;24.746;2023-05-10T07:45:28;8.57;;;6.83;;
2674;SDS011;1347;42.122;24.746;2023-05-10T07:47:55;10.17;;;7.00;;
2674;SDS011;1347;42.122;24.746;2023-05-10T07:50:21;7.03;;;6.40;;
2674;SDS011;1347;42.122;24.746;2023-05-10T07:52:48;8.43;;;7.00;;
2674;SDS011;1347;42.122;24.746;2023-05-10T07:55:15;8.67;;;7.20;;
2674;SDS011;1347;42.122;24.746;2023-05-10T07:57:44;8.70;;;7.00;;
2674;SDS011;1347;42.122;24.746;2023-05-10T08:00:12;10.30;;;6.67;;
2674;SDS011;1347;42.122;24.746;2023-05-10T08:02:41;8.23;;;5.50;;
2674;SDS011;1347;42.122;24.746;2023-05-10T08:05:08;7.93;;;6.90;;
2674;SDS011;1347;42.122;24.746;2023-05-10T08:07:35;8.90;;;6.90;;
2674;SDS011;1347;42.122;24.746;2023-05-10T08:10:02;11.57;;;7.30;;
2674;SDS011;1347;42.122;24.746;2023-05-10T08:12:30;10.70;;;6.20;;
2674;SDS011;1347;42.122;24.746;2023-05-10T08:14:56;8.87;;;7.37;;
2674;SDS011;1347;42.122;24.746;2023-05-10T08:17:23;8.40;;;5.80;;
2674;SDS011;1347;42.122;24.746;2023-05-10T08:19:51;5.33;;;4.83;;
2674;SDS011;1347;42.122;24.746;2023-05-10T08:22:18;7.70;;;5.50;;
2674;SDS011;1347;42.122;24.746;2023-05-10T08:24:45;9.03;;;5.90;;
2674;SDS011;1347;42.122;24.746;2023-05-10T08:27:12;6.90;;;5.77;;
2674;SDS011;1347;42.122;24.746;2023-05-10T08:29:39;7.43;;;6.60;;
2674;SDS011;1347;42.122;24.746;2023-05-10T08:32:06;12.43;;;6.83;;
2674;SDS011;1347;42.122;24.746;2023-05-10T08:34:32;12.53;;;6.40;;
2674;SDS011;1347;42.122;24.746;2023-05-10T08:37:01;9.83;;;5.80;;
2674;SDS011;1347;42.122;24.746;2023-05-10T08:39:27;7.80;;;6.43;;
2674;SDS011;1347;42.122;24.746;2023-05-10T08:41:54;10.00;;;6.00;;
2674;SDS011;1347;42.122;24.746;2023-05-10T08:44:27;9.93;;;6.17;;
2674;SDS011;1347;42.122;24.746;2023-05-10T08:46:55;7.57;;;6.40;;
2674;SDS011;1347;42.122;24.746;2023-05-10T08:49:26;8.23;;;6.03;;
2674;SDS011;1347;42.122;24.746;2023-05-10T08:51:57;8.83;;;6.17;;
2674;SDS011;1347;42.122;24.746;2023-05-10T08:54:29;8.17;;;6.17;;
2674;SDS011;1347;42.122;24.746;2023-05-10T08:56:57;6.40;;;5.60;;
2674;SDS011;1347;42.122;24.746;2023-05-10T08:59:24;11.40;;;6.70;;
2674;SDS011;1347;42.122;24.746;2023-05-10T09:01:51;11.73;;;7.30;;
2674;SDS011;1347;42.122;24.746;2023-05-10T09:04:20;9.23;;;6.03;;
2674;SDS011;1347;42.122;24.746;2023-05-10T09:06:47;10.63;;;6.57;;
2674;SDS011;1347;42.122;24.746;2023-05-10T09:09:14;7.47;;;6.70;;
2674;SDS011;1347;42.122;24.746;2023-05-10T09:11:43;8.90;;;6.37;;
2674;SDS011;1347;42.122;24.746;2023-05-10T09:14:11;7.27;;;6.57;;
2674;SDS011;1347;42.122;24.746;2023-05-10T09:16:39;7.77;;;6.97;;
2674;SDS011;1347;42.122;24.746;2023-05-10T09:19:06;12.63;;;7.07;;
2674;SDS011;1347;42.122;24.746;2023-05-10T09:21:34;9.00;;;6.60;;
2674;SDS011;1347;42.122;24.746;2023-05-10T09:24:02;6.97;;;6.43;;
2674;SDS011;1347;42.122;24.746;2023-05-10T09:26:30;10.37;;;6.77;;
2674;SDS011;1347;42.122;24.746;2023-05-10T09:28:59;8.30;;;6.47;;
2674;SDS011;1347;42.122;24.746;2023-05-10T09:34:11;8.67;;;6.90;;
2674;SDS011;1347;42.122;24.746;2023-05-10T09:36:50;7.20;;;6.50;;
2674;SDS011;1347;42.122;24.746;2023-05-10T09:39:17;9.73;;;7.83;;
2674;SDS011;1347;42.122;24.746;2023-05-10T09:41:44;7.93;;;7.30;;
2674;SDS011;1347;42.122;24.746;2023-05-10T09:44:14;7.43;;;6.60;;
2674;SDS011;1347;42.122;24.746;2023-05-10T09:46:48;7.00;;;6.30;;
2674;SDS011;1347;42.122;24.746;2023-05-10T09:49:15;15.37;;;6.67;;
2674;SDS011;1347;42.122;24.746;2023-05-10T09:51:42;7.60;;;5.60;;
2674;SDS011;1347;42.122;24.746;2023-05-10T09:54:10;8.27;;;6.60;;
2674;SDS011;1347;42.122;24.746;2023-05-10T09:56:38;8.87;;;7.00;;
2674;SDS011;1347;42.122;24.746;2023-05-10T09:59:06;10.13;;;5.63;;
2674;SDS011;1347;42.122;24.746;2023-05-10T10:01:35;9.43;;;5.53;;
2674;SDS011;1347;42.122;24.746;2023-05-10T10:04:03;6.87;;;5.30;;
2674;SDS011;1347;42.122;24.746;2023-05-10T10:06:34;14.30;;;7.00;;
2674;SDS011;1347;42.122;24.746;2023-05-10T10:09:02;8.47;;;6.03;;
2674;SDS011;1347;42.122;24.746;2023-05-10T10:11:30;11.53;;;7.20;;
2674;SDS011;1347;42.122;24.746;2023-05-10T10:13:57;12.80;;;6.27;;
2674;SDS011;1347;42.122;24.746;2023-05-10T10:16:25;6.73;;;5.50;;
2674;SDS011;1347;42.122;24.746;2023-05-10T10:18:54;5.90;;;5.40;;
2674;SDS011;1347;42.122;24.746;2023-05-10T10:21:21;8.20;;;5.67;;
2674;SDS011;1347;42.122;24.746;2023-05-10T10:23:49;6.77;;;6.00;;
2674;SDS011;1347;42.122;24.746;2023-05-10T10:26:17;5.67;;;5.17;;
2674;SDS011;1347;42.122;24.746;2023-05-10T10:28:46;10.83;;;5.60;;
2674;SDS011;1347;42.122;24.746;2023-05-10T10:31:21;8.20;;;6.00;;
2674;SDS011;1347;42.122;24.746;2023-05-10T10:33:59;6.10;;;5.23;;
2674;SDS011;1347;42.122;24.746;2023-05-10T10:36:28;7.30;;;6.07;;
2674;SDS011;1347;42.122;24.746;2023-05-10T10:38:58;6.53;;;5.93;;
2674;SDS011;1347;42.122;24.746;2023-05-10T10:41:29;8.47;;;7.20;;
2674;SDS011;1347;42.122;24.746;2023-05-10T10:47:03;8.67;;;6.90;;
2674;SDS011;1347;42.122;24.746;2023-05-10T10:49:37;10.70;;;6.47;;
2674;SDS011;1347;42.122;24.746;2023-05-10T10:52:14;12.27;;;6.00;;
2674;SDS011;1347;42.122;24.746;2023-05-10T10:54:51;8.37;;;6.53;;
2674;SDS011;1347;42.122;24.746;2023-05-10T10:57:20;7.90;;;6.43;;
2674;SDS011;1347;42.122;24.746;2023-05-10T10:59:47;7.40;;;6.13;;
2674;SDS011;1347;42.122;24.746;2023-05-10T11:05:10;6.60;;;6.00;;
2674;SDS011;1347;42.122;24.746;2023-05-10T11:08:00;6.90;;;6.20;;
2674;SDS011;1347;42.122;24.746;2023-05-10T11:10:34;7.03;;;6.30;;
2674;SDS011;1347;42.122;24.746;2023-05-10T11:13:01;7.20;;;6.60;;
2674;SDS011;1347;42.122;24.746;2023-05-10T11:15:29;7.50;;;6.53;;
2674;SDS011;1347;42.122;24.746;2023-05-10T11:17:56;9.00;;;6.70;;
2674;SDS011;1347;42.122;24.746;2023-05-10T11:20:24;7.53;;;6.93;;
2674;SDS011;1347;42.122;24.746;2023-05-10T11:23:00;7.50;;;6.80;;
2674;SDS011;1347;42.122;24.746;2023-05-10T11:25:40;6.57;;;5.93;;
2674;SDS011;1347;42.122;24.746;2023-05-10T11:28:09;6.93;;;6.33;;
2674;SDS011;1347;42.122;24.746;2023-05-10T11:30:37;7.57;;;6.77;;
2674;SDS011;1347;42.122;24.746;2023-05-10T11:33:05;7.23;;;6.17;;
2674;SDS011;1347;42.122;24.746;2023-05-10T11:35:38;5.93;;;5.43;;
2674;SDS011;1347;42.122;24.746;2023-05-10T11:38:06;7.10;;;6.50;;
2674;SDS011;1347;42.122;24.746;2023-05-10T11:40:33;7.10;;;5.80;;
2674;SDS011;1347;42.122;24.746;2023-05-10T11:43:00;7.47;;;5.70;;
2674;SDS011;1347;42.122;24.746;2023-05-10T11:45:27;6.90;;;6.30;;
2674;SDS011;1347;42.122;24.746;2023-05-10T11:47:56;7.33;;;6.63;;
2674;SDS011;1347;42.122;24.746;2023-05-10T11:50:23;7.10;;;6.40;;
2674;SDS011;1347;42.122;24.746;2023-05-10T11:52:52;7.93;;;7.30;;
2674;SDS011;1347;42.122;24.746;2023-05-10T11:55:20;7.70;;;7.10;;
2674;SDS011;1347;42.122;24.746;2023-05-10T11:57:47;8.30;;;6.30;;
2674;SDS011;1347;42.122;24.746;2023-05-10T12:00:17;9.10;;;8.27;;
2674;SDS011;1347;42.122;24.746;2023-05-10T12:02:45;7.53;;;6.90;;
2674;SDS011;1347;42.122;24.746;2023-05-10T12:05:11;8.47;;;7.27;;
2674;SDS011;1347;42.122;24.746;2023-05-10T12:07:39;8.33;;;7.50;;
2674;SDS011;1347;42.122;24.746;2023-05-10T12:10:07;7.30;;;6.80;;
2674;SDS011;1347;42.122;24.746;2023-05-10T12:12:38;8.00;;;7.40;;
2674;SDS011;1347;42.122;24.746;2023-05-10T12:15:10;6.47;;;5.90;;
2674;SDS011;1347;42.122;24.746;2023-05-10T12:17:38;9.20;;;7.57;;
2674;SDS011;1347;42.122;24.746;2023-05-10T12:20:15;7.77;;;7.10;;
2674;SDS011;1347;42.122;24.746;2023-05-10T12:22:45;9.00;;;8.10;;
2674;SDS011;1347;42.122;24.746;2023-05-10T12:25:14;8.73;;;7.80;;
2674;SDS011;1347;42.122;24.746;2023-05-10T12:27:47;9.10;;;8.30;;
2674;SDS011;1347;42.122;24.746;2023-05-10T12:30:18;8.73;;;7.83;;
2674;SDS011;1347;42.122;24.746;2023-05-10T12:32:46;8.97;;;8.07;;
2674;SDS011;1347;42.122;24.746;2023-05-10T12:35:13;13.23;;;8.93;;
2674;SDS011;1347;42.122;24.746;2023-05-10T12:37:41;10.47;;;9.43;;
2674;SDS011;1347;42.122;24.746;2023-05-10T12:40:08;11.50;;;9.70;;
2674;SDS011;1347;42.122;24.746;2023-05-10T12:42:38;10.97;;;10.07;;
2674;SDS011;1347;42.122;24.746;2023-05-10T12:45:07;10.93;;;9.93;;
2674;SDS011;1347;42.122;24.746;2023-05-10T12:47:35;9.70;;;9.00;;
2674;SDS011;1347;42.122;24.746;2023-05-10T12:50:02;10.30;;;9.30;;
2674;SDS011;1347;42.122;24.746;2023-05-10T12:52:30;11.10;;;9.90;;
2674;SDS011;1347;42.122;24.746;2023-05-10T12:54:58;10.90;;;10.00;;
2674;SDS011;1347;42.122;24.746;2023-05-10T12:57:25;9.70;;;9.00;;
2674;SDS011;1347;42.122;24.746;2023-05-10T12:59:54;10.30;;;9.40;;
2674;SDS011;1347;42.122;24.746;2023-05-10T13:02:21;10.57;;;9.70;;
2674;SDS011;1347;42.122;24.746;2023-05-10T13:04:48;11.07;;;9.97;;
2674;SDS011;1347;42.122;24.746;2023-05-10T13:07:15;12.43;;;11.10;;
2674;SDS011;1347;42.122;24.746;2023-05-10T13:09:42;10.53;;;9.83;;
2674;SDS011;1347;42.122;24.746;2023-05-10T13:12:09;11.67;;;8.70;;
2674;SDS011;1347;42.122;24.746;2023-05-10T13:14:36;10.90;;;8.20;;
2674;SDS011;1347;42.122;24.746;2023-05-10T13:17:06;9.97;;;8.53;;
2674;SDS011;1347;42.122;24.746;2023-05-10T13:19:33;10.03;;;9.03;;
2674;SDS011;1347;42.122;24.746;2023-05-10T13:22:01;10.50;;;9.50;;
2674;SDS011;1347;42.122;24.746;2023-05-10T13:24:27;12.30;;;10.47;;
2674;SDS011;1347;42.122;24.746;2023-05-10T13:26:55;10.20;;;9.30;;
2674;SDS011;1347;42.122;24.746;2023-05-10T13:29:21;14.60;;;10.20;;
2674;SDS011;1347;42.122;24.746;2023-05-10T13:31:48;10.30;;;9.37;;
2674;SDS011;1347;42.122;24.746;2023-05-10T13:34:17;10.03;;;9.03;;
2674;SDS011;1347;42.122;24.746;2023-05-10T13:36:45;9.63;;;8.83;;
2674;SDS011;1347;42.122;24.746;2023-05-10T13:39:12;13.50;;;9.37;;
2674;SDS011;1347;42.122;24.746;2023-05-10T13:41:39;11.67;;;10.23;;
2674;SDS011;1347;42.122;24.746;2023-05-10T13:44:06;10.90;;;9.80;;
2674;SDS011;1347;42.122;24.746;2023-05-10T13:46:33;12.33;;;11.10;;
2674;SDS011;1347;42.122;24.746;2023-05-10T13:49:00;9.93;;;9.03;;
2674;SDS011;1347;42.122;24.746;2023-05-10T13:51:28;10.67;;;9.77;;
2674;SDS011;1347;42.122;24.746;2023-05-10T13:53:56;14.37;;;10.00;;
2674;SDS011;1347;42.122;24.746;2023-05-10T13:56:23;11.47;;;10.57;;
2674;SDS011;1347;42.122;24.746;2023-05-10T13:58:50;12.00;;;10.90;;
2674;SDS011;1347;42.122;24.746;2023-05-10T14:01:17;12.37;;;11.37;;
2674;SDS011;1347;42.122;24.746;2023-05-10T14:03:44;11.50;;;10.60;;
2674;SDS011;1347;42.122;24.746;2023-05-10T14:06:11;13.23;;;11.33;;
2674;SDS011;1347;42.122;24.746;2023-05-10T14:08:39;12.30;;;11.10;;
2674;SDS011;1347;42.122;24.746;2023-05-10T14:11:06;11.37;;;10.37;;
2674;SDS011;1347;42.122;24.746;2023-05-10T14:13:33;12.00;;;10.90;;
2674;SDS011;1347;42.122;24.746;2023-05-10T14:16:00;10.13;;;9.33;;
2674;SDS011;1347;42.122;24.746;2023-05-10T14:18:27;11.07;;;9.40;;
2674;SDS011;1347;42.122;24.746;2023-05-10T14:20:54;11.67;;;10.57;;
2674;SDS011;1347;42.122;24.746;2023-05-10T14:23:21;11.73;;;10.73;;
2674;SDS011;1347;42.122;24.746;2023-05-10T14:25:52;10.13;;;9.30;;
2674;SDS011;1347;42.122;24.746;2023-05-10T14:28:19;10.67;;;9.57;;
2674;SDS011;1347;42.122;24.746;2023-05-10T14:30:47;10.03;;;8.87;;
2674;SDS011;1347;42.122;24.746;2023-05-10T14:33:14;10.83;;;9.17;;
2674;SDS011;1347;42.122;24.746;2023-05-10T14:35:41;10.63;;;9.63;;
2674;SDS011;1347;42.122;24.746;2023-05-10T14:38:08;9.43;;;8.60;;
2674;SDS011;1347;42.122;24.746;2023-05-10T14:40:35;8.83;;;8.00;;
2674;SDS011;1347;42.122;24.746;2023-05-10T14:43:04;9.70;;;8.73;;
2674;SDS011;1347;42.122;24.746;2023-05-10T14:45:31;12.03;;;9.80;;
2674;SDS011;1347;42.122;24.746;2023-05-10T14:47:58;9.43;;;8.57;;
2674;SDS011;1347;42.122;24.746;2023-05-10T14:50:25;8.23;;;7.53;;
2674;SDS011;1347;42.122;24.746;2023-05-10T14:52:52;10.10;;;9.30;;
2674;SDS011;1347;42.122;24.746;2023-05-10T14:55:19;10.00;;;9.07;;
2674;SDS011;1347;42.122;24.746;2023-05-10T14:57:45;10.77;;;9.27;;
2674;SDS011;1347;42.122;24.746;2023-05-10T15:00:16;11.53;;;8.87;;
2674;SDS011;1347;42.122;24.746;2023-05-10T15:02:44;8.77;;;7.87;;
2674;SDS011;1347;42.122;24.746;2023-05-10T15:05:12;9.07;;;8.13;;
2674;SDS011;1347;42.122;24.746;2023-05-10T15:07:39;8.30;;;7.50;;